Terminal Aerodrome Forecast
Issued by NWS

Current Version | Previous Version | Text Only | Print | Product List | Glossary On
Versions: 1 2 3 4 5 6 7 8 9 10 11 12 13 14 15 16 17 18 19 20
000
FTUS43 KIND 251429 AAC
TAFHUF
TAF AMD
KHUF 251429Z 2514/2612 24005KT P6SM FEW010
     FM251500 25008KT P6SM SCT035 SCT080 BKN250 PROB30 2523/2603 3SM
      -TSRA OVC030CB
     FM260300 32003KT P6SM SCT080 BKN250
     FM260700 02003KT 4SM BR SCT040 SCT080 BKN250=

USA.gov is the U.S. government's official web portal to all federal, state and local government web resources and services.